sensor_id;sensor_type;location;lat;lon;timestamp;P1;durP1;ratioP1;P2;durP2;ratioP2
7799;SDS011;3944;47.984;7.960;2022-08-02T00:01:50;1.00;;;1.00;;
7799;SDS011;3944;47.984;7.960;2022-08-02T00:04:18;0.90;;;0.90;;
7799;SDS011;3944;47.984;7.960;2022-08-02T00:06:45;1.20;;;1.20;;
7799;SDS011;3944;47.984;7.960;2022-08-02T00:09:13;1.00;;;1.00;;
7799;SDS011;3944;47.984;7.960;2022-08-02T00:11:40;0.90;;;0.90;;
7799;SDS011;3944;47.984;7.960;2022-08-02T00:14:07;1.10;;;1.10;;
7799;SDS011;3944;47.984;7.960;2022-08-02T00:16:34;0.80;;;0.80;;
7799;SDS011;3944;47.984;7.960;2022-08-02T00:19:01;1.00;;;1.00;;
7799;SDS011;3944;47.984;7.960;2022-08-02T00:21:28;2.67;;;1.23;;
7799;SDS011;3944;47.984;7.960;2022-08-02T00:23:55;1.70;;;1.60;;
7799;SDS011;3944;47.984;7.960;2022-08-02T00:26:23;1.02;;;1.02;;
7799;SDS011;3944;47.984;7.960;2022-08-02T00:28:50;1.27;;;1.23;;
7799;SDS011;3944;47.984;7.960;2022-08-02T00:31:17;1.42;;;1.42;;
7799;SDS011;3944;47.984;7.960;2022-08-02T00:33:44;1.38;;;1.13;;
7799;SDS011;3944;47.984;7.960;2022-08-02T00:36:11;1.83;;;1.55;;
7799;SDS011;3944;47.984;7.960;2022-08-02T00:38:38;1.00;;;1.00;;
7799;SDS011;3944;47.984;7.960;2022-08-02T00:41:09;1.45;;;1.35;;
7799;SDS011;3944;47.984;7.960;2022-08-02T00:43:39;1.10;;;1.10;;
7799;SDS011;3944;47.984;7.960;2022-08-02T00:46:06;1.30;;;1.30;;
7799;SDS011;3944;47.984;7.960;2022-08-02T00:48:34;1.40;;;1.30;;
7799;SDS011;3944;47.984;7.960;2022-08-02T00:51:01;1.42;;;1.33;;
7799;SDS011;3944;47.984;7.960;2022-08-02T00:53:28;1.85;;;1.48;;
7799;SDS011;3944;47.984;7.960;2022-08-02T00:55:55;1.10;;;1.10;;
7799;SDS011;3944;47.984;7.960;2022-08-02T00:58:22;1.20;;;1.20;;
7799;SDS011;3944;47.984;7.960;2022-08-02T01:00:50;1.48;;;1.45;;
7799;SDS011;3944;47.984;7.960;2022-08-02T01:03:17;1.67;;;1.58;;
7799;SDS011;3944;47.984;7.960;2022-08-02T01:05:44;1.23;;;1.23;;
7799;SDS011;3944;47.984;7.960;2022-08-02T01:08:11;1.23;;;1.23;;
7799;SDS011;3944;47.984;7.960;2022-08-02T01:10:38;1.60;;;1.50;;
7799;SDS011;3944;47.984;7.960;2022-08-02T01:13:05;1.35;;;1.30;;
7799;SDS011;3944;47.984;7.960;2022-08-02T01:15:32;1.30;;;1.27;;
7799;SDS011;3944;47.984;7.960;2022-08-02T01:18:07;1.10;;;1.10;;
7799;SDS011;3944;47.984;7.960;2022-08-02T01:20:45;1.35;;;1.25;;
7799;SDS011;3944;47.984;7.960;2022-08-02T01:23:38;1.45;;;1.35;;
7799;SDS011;3944;47.984;7.960;2022-08-02T01:26:25;1.25;;;1.20;;
7799;SDS011;3944;47.984;7.960;2022-08-02T01:29:05;1.17;;;1.17;;
7799;SDS011;3944;47.984;7.960;2022-08-02T01:31:37;0.95;;;0.95;;
7799;SDS011;3944;47.984;7.960;2022-08-02T01:34:10;1.23;;;1.10;;
7799;SDS011;3944;47.984;7.960;2022-08-02T01:36:44;1.45;;;1.35;;
7799;SDS011;3944;47.984;7.960;2022-08-02T01:39:22;1.02;;;1.02;;
7799;SDS011;3944;47.984;7.960;2022-08-02T01:41:53;1.17;;;1.17;;
7799;SDS011;3944;47.984;7.960;2022-08-02T01:44:23;1.10;;;1.08;;
7799;SDS011;3944;47.984;7.960;2022-08-02T01:46:52;1.13;;;1.10;;
7799;SDS011;3944;47.984;7.960;2022-08-02T01:49:22;1.48;;;1.38;;
7799;SDS011;3944;47.984;7.960;2022-08-02T01:51:50;1.23;;;1.13;;
7799;SDS011;3944;47.984;7.960;2022-08-02T01:54:36;1.00;;;1.00;;
7799;SDS011;3944;47.984;7.960;2022-08-02T01:57:06;1.02;;;1.02;;
7799;SDS011;3944;47.984;7.960;2022-08-02T01:59:39;1.10;;;1.10;;
7799;SDS011;3944;47.984;7.960;2022-08-02T02:02:09;1.23;;;1.23;;
7799;SDS011;3944;47.984;7.960;2022-08-02T02:04:37;1.05;;;1.05;;
7799;SDS011;3944;47.984;7.960;2022-08-02T02:07:06;1.25;;;1.20;;
7799;SDS011;3944;47.984;7.960;2022-08-02T02:09:35;2.00;;;1.90;;
7799;SDS011;3944;47.984;7.960;2022-08-02T02:12:04;1.20;;;1.10;;
7799;SDS011;3944;47.984;7.960;2022-08-02T02:14:32;2.05;;;1.15;;
7799;SDS011;3944;47.984;7.960;2022-08-02T02:17:02;1.05;;;1.05;;
7799;SDS011;3944;47.984;7.960;2022-08-02T02:19:30;1.08;;;1.08;;
7799;SDS011;3944;47.984;7.960;2022-08-02T02:22:00;1.20;;;1.20;;
7799;SDS011;3944;47.984;7.960;2022-08-02T02:24:28;1.10;;;1.10;;
7799;SDS011;3944;47.984;7.960;2022-08-02T02:26:55;1.25;;;1.25;;
7799;SDS011;3944;47.984;7.960;2022-08-02T02:29:24;1.48;;;1.38;;
7799;SDS011;3944;47.984;7.960;2022-08-02T02:31:54;1.40;;;1.30;;
7799;SDS011;3944;47.984;7.960;2022-08-02T02:34:25;1.17;;;1.17;;
7799;SDS011;3944;47.984;7.960;2022-08-02T02:36:54;1.20;;;1.20;;
7799;SDS011;3944;47.984;7.960;2022-08-02T02:39:24;1.40;;;1.30;;
7799;SDS011;3944;47.984;7.960;2022-08-02T02:41:53;1.70;;;1.60;;
7799;SDS011;3944;47.984;7.960;2022-08-02T02:44:23;1.48;;;1.38;;
7799;SDS011;3944;47.984;7.960;2022-08-02T02:46:52;5.50;;;1.40;;
7799;SDS011;3944;47.984;7.960;2022-08-02T02:49:20;1.52;;;1.42;;
7799;SDS011;3944;47.984;7.960;2022-08-02T02:51:50;1.10;;;1.10;;
7799;SDS011;3944;47.984;7.960;2022-08-02T02:54:18;1.58;;;1.48;;
7799;SDS011;3944;47.984;7.960;2022-08-02T02:56:47;1.10;;;1.10;;
7799;SDS011;3944;47.984;7.960;2022-08-02T02:59:15;1.13;;;1.13;;
7799;SDS011;3944;47.984;7.960;2022-08-02T03:01:42;1.55;;;1.48;;
7799;SDS011;3944;47.984;7.960;2022-08-02T03:04:10;1.30;;;1.27;;
7799;SDS011;3944;47.984;7.960;2022-08-02T03:06:39;0.98;;;0.98;;
7799;SDS011;3944;47.984;7.960;2022-08-02T03:09:07;1.40;;;1.33;;
7799;SDS011;3944;47.984;7.960;2022-08-02T03:11:35;1.52;;;1.42;;
7799;SDS011;3944;47.984;7.960;2022-08-02T03:14:03;1.05;;;1.05;;
7799;SDS011;3944;47.984;7.960;2022-08-02T03:16:33;0.90;;;0.90;;
7799;SDS011;3944;47.984;7.960;2022-08-02T03:19:07;1.40;;;1.40;;
7799;SDS011;3944;47.984;7.960;2022-08-02T03:21:34;0.90;;;0.90;;
7799;SDS011;3944;47.984;7.960;2022-08-02T03:24:01;1.35;;;1.35;;
7799;SDS011;3944;47.984;7.960;2022-08-02T03:26:29;1.13;;;1.13;;
7799;SDS011;3944;47.984;7.960;2022-08-02T03:28:56;1.60;;;1.50;;
7799;SDS011;3944;47.984;7.960;2022-08-02T03:31:22;1.20;;;1.20;;
7799;SDS011;3944;47.984;7.960;2022-08-02T03:33:49;1.27;;;1.27;;
7799;SDS011;3944;47.984;7.960;2022-08-02T03:36:17;1.40;;;1.30;;
7799;SDS011;3944;47.984;7.960;2022-08-02T03:38:46;1.23;;;1.23;;
7799;SDS011;3944;47.984;7.960;2022-08-02T03:41:15;1.30;;;1.30;;
7799;SDS011;3944;47.984;7.960;2022-08-02T03:43:45;1.60;;;1.50;;
7799;SDS011;3944;47.984;7.960;2022-08-02T03:46:13;1.15;;;1.08;;
7799;SDS011;3944;47.984;7.960;2022-08-02T03:48:42;1.13;;;1.05;;
7799;SDS011;3944;47.984;7.960;2022-08-02T03:51:09;1.40;;;1.20;;
7799;SDS011;3944;47.984;7.960;2022-08-02T03:53:37;1.17;;;1.17;;
7799;SDS011;3944;47.984;7.960;2022-08-02T03:56:05;1.30;;;1.30;;
7799;SDS011;3944;47.984;7.960;2022-08-02T03:58:32;0.82;;;0.82;;
7799;SDS011;3944;47.984;7.960;2022-08-02T04:01:01;1.52;;;1.45;;
7799;SDS011;3944;47.984;7.960;2022-08-02T04:03:27;1.30;;;1.30;;
7799;SDS011;3944;47.984;7.960;2022-08-02T04:05:54;1.70;;;1.60;;
7799;SDS011;3944;47.984;7.960;2022-08-02T04:08:21;1.70;;;1.60;;
7799;SDS011;3944;47.984;7.960;2022-08-02T04:10:48;1.42;;;1.33;;
7799;SDS011;3944;47.984;7.960;2022-08-02T04:13:33;1.33;;;1.23;;
7799;SDS011;3944;47.984;7.960;2022-08-02T04:16:05;1.10;;;1.10;;
7799;SDS011;3944;47.984;7.960;2022-08-02T04:18:38;1.27;;;1.27;;
7799;SDS011;3944;47.984;7.960;2022-08-02T04:21:08;1.67;;;1.58;;
7799;SDS011;3944;47.984;7.960;2022-08-02T04:23:39;1.15;;;1.15;;
7799;SDS011;3944;47.984;7.960;2022-08-02T04:26:08;1.40;;;1.40;;
7799;SDS011;3944;47.984;7.960;2022-08-02T04:28:36;0.95;;;0.95;;
7799;SDS011;3944;47.984;7.960;2022-08-02T04:31:05;1.25;;;1.25;;
7799;SDS011;3944;47.984;7.960;2022-08-02T04:33:33;1.13;;;1.13;;
7799;SDS011;3944;47.984;7.960;2022-08-02T04:36:02;1.45;;;1.35;;
7799;SDS011;3944;47.984;7.960;2022-08-02T04:38:31;1.60;;;1.50;;
7799;SDS011;3944;47.984;7.960;2022-08-02T04:40:58;1.30;;;1.23;;
7799;SDS011;3944;47.984;7.960;2022-08-02T04:43:25;1.75;;;1.65;;
7799;SDS011;3944;47.984;7.960;2022-08-02T04:45:52;1.25;;;1.20;;
7799;SDS011;3944;47.984;7.960;2022-08-02T04:48:21;1.10;;;1.10;;
7799;SDS011;3944;47.984;7.960;2022-08-02T04:50:49;1.67;;;1.58;;
7799;SDS011;3944;47.984;7.960;2022-08-02T04:53:16;1.17;;;1.17;;
7799;SDS011;3944;47.984;7.960;2022-08-02T04:55:43;1.70;;;1.60;;
7799;SDS011;3944;47.984;7.960;2022-08-02T04:58:11;0.98;;;0.98;;
7799;SDS011;3944;47.984;7.960;2022-08-02T05:00:37;1.65;;;1.55;;
7799;SDS011;3944;47.984;7.960;2022-08-02T05:03:05;1.00;;;1.00;;
7799;SDS011;3944;47.984;7.960;2022-08-02T05:05:33;1.05;;;1.05;;
7799;SDS011;3944;47.984;7.960;2022-08-02T05:08:00;1.23;;;1.13;;
7799;SDS011;3944;47.984;7.960;2022-08-02T05:10:28;0.90;;;0.90;;
7799;SDS011;3944;47.984;7.960;2022-08-02T05:12:54;1.52;;;1.38;;
7799;SDS011;3944;47.984;7.960;2022-08-02T05:15:21;1.55;;;1.45;;
7799;SDS011;3944;47.984;7.960;2022-08-02T05:17:48;1.23;;;1.20;;
7799;SDS011;3944;47.984;7.960;2022-08-02T05:20:16;1.70;;;1.60;;
7799;SDS011;3944;47.984;7.960;2022-08-02T05:22:44;1.42;;;1.33;;
7799;SDS011;3944;47.984;7.960;2022-08-02T05:25:12;1.35;;;1.25;;
7799;SDS011;3944;47.984;7.960;2022-08-02T05:27:39;1.48;;;1.40;;
7799;SDS011;3944;47.984;7.960;2022-08-02T05:30:07;5.97;;;1.88;;
7799;SDS011;3944;47.984;7.960;2022-08-02T05:32:41;1.70;;;1.60;;
7799;SDS011;3944;47.984;7.960;2022-08-02T05:35:09;1.10;;;1.10;;
7799;SDS011;3944;47.984;7.960;2022-08-02T05:37:35;1.27;;;1.23;;
7799;SDS011;3944;47.984;7.960;2022-08-02T05:40:04;1.10;;;1.10;;
7799;SDS011;3944;47.984;7.960;2022-08-02T05:42:32;2.00;;;1.80;;
7799;SDS011;3944;47.984;7.960;2022-08-02T05:44:59;1.50;;;1.40;;
7799;SDS011;3944;47.984;7.960;2022-08-02T05:47:26;5.35;;;1.50;;
7799;SDS011;3944;47.984;7.960;2022-08-02T05:49:53;1.20;;;1.20;;
7799;SDS011;3944;47.984;7.960;2022-08-02T05:52:20;1.08;;;1.08;;
7799;SDS011;3944;47.984;7.960;2022-08-02T05:54:53;1.10;;;1.10;;
7799;SDS011;3944;47.984;7.960;2022-08-02T05:57:29;1.35;;;1.35;;
7799;SDS011;3944;47.984;7.960;2022-08-02T06:00:04;1.02;;;1.02;;
7799;SDS011;3944;47.984;7.960;2022-08-02T06:02:38;3.35;;;1.50;;
7799;SDS011;3944;47.984;7.960;2022-08-02T06:05:15;1.90;;;1.80;;
7799;SDS011;3944;47.984;7.960;2022-08-02T06:07:45;1.20;;;1.20;;
7799;SDS011;3944;47.984;7.960;2022-08-02T06:10:14;1.45;;;1.35;;
7799;SDS011;3944;47.984;7.960;2022-08-02T06:12:45;1.73;;;1.63;;
7799;SDS011;3944;47.984;7.960;2022-08-02T06:15:15;1.20;;;1.20;;
7799;SDS011;3944;47.984;7.960;2022-08-02T06:17:43;1.38;;;1.27;;
7799;SDS011;3944;47.984;7.960;2022-08-02T06:20:11;1.58;;;1.27;;
7799;SDS011;3944;47.984;7.960;2022-08-02T06:22:39;1.20;;;1.20;;
7799;SDS011;3944;47.984;7.960;2022-08-02T06:25:08;3.58;;;2.08;;
7799;SDS011;3944;47.984;7.960;2022-08-02T06:27:36;1.33;;;1.25;;
7799;SDS011;3944;47.984;7.960;2022-08-02T06:30:05;1.30;;;1.30;;
7799;SDS011;3944;47.984;7.960;2022-08-02T06:32:34;1.67;;;1.58;;
7799;SDS011;3944;47.984;7.960;2022-08-02T06:35:01;1.63;;;1.52;;
7799;SDS011;3944;47.984;7.960;2022-08-02T06:37:32;1.75;;;1.65;;
7799;SDS011;3944;47.984;7.960;2022-08-02T06:40:05;1.17;;;1.08;;
7799;SDS011;3944;47.984;7.960;2022-08-02T06:42:42;0.90;;;0.90;;
7799;SDS011;3944;47.984;7.960;2022-08-02T06:45:15;1.30;;;1.30;;
7799;SDS011;3944;47.984;7.960;2022-08-02T06:47:42;1.00;;;1.00;;
7799;SDS011;3944;47.984;7.960;2022-08-02T06:50:09;1.52;;;1.38;;
7799;SDS011;3944;47.984;7.960;2022-08-02T06:52:36;1.52;;;1.42;;
7799;SDS011;3944;47.984;7.960;2022-08-02T06:55:04;1.17;;;1.10;;
7799;SDS011;3944;47.984;7.960;2022-08-02T06:57:32;0.98;;;0.98;;
7799;SDS011;3944;47.984;7.960;2022-08-02T06:59:59;1.60;;;1.50;;
7799;SDS011;3944;47.984;7.960;2022-08-02T07:02:28;1.10;;;1.10;;
7799;SDS011;3944;47.984;7.960;2022-08-02T07:04:56;1.10;;;1.00;;
7799;SDS011;3944;47.984;7.960;2022-08-02T07:07:23;1.63;;;1.52;;
7799;SDS011;3944;47.984;7.960;2022-08-02T07:09:51;0.95;;;0.95;;
7799;SDS011;3944;47.984;7.960;2022-08-02T07:12:18;1.08;;;1.08;;
7799;SDS011;3944;47.984;7.960;2022-08-02T07:14:45;1.35;;;1.30;;
7799;SDS011;3944;47.984;7.960;2022-08-02T07:17:12;3.75;;;1.33;;
7799;SDS011;3944;47.984;7.960;2022-08-02T07:19:41;1.30;;;1.30;;
7799;SDS011;3944;47.984;7.960;2022-08-02T07:22:08;1.60;;;1.50;;
7799;SDS011;3944;47.984;7.960;2022-08-02T07:24:36;1.30;;;1.20;;
7799;SDS011;3944;47.984;7.960;2022-08-02T07:27:03;1.40;;;1.30;;
7799;SDS011;3944;47.984;7.960;2022-08-02T07:29:31;1.52;;;1.42;;
7799;SDS011;3944;47.984;7.960;2022-08-02T07:31:58;1.48;;;1.38;;
7799;SDS011;3944;47.984;7.960;2022-08-02T07:34:25;1.65;;;1.55;;
7799;SDS011;3944;47.984;7.960;2022-08-02T07:36:53;1.10;;;1.10;;
7799;SDS011;3944;47.984;7.960;2022-08-02T07:39:21;1.88;;;1.67;;
7799;SDS011;3944;47.984;7.960;2022-08-02T07:41:47;1.33;;;1.23;;
7799;SDS011;3944;47.984;7.960;2022-08-02T07:44:16;1.10;;;1.10;;
7799;SDS011;3944;47.984;7.960;2022-08-02T07:46:43;1.38;;;1.38;;
7799;SDS011;3944;47.984;7.960;2022-08-02T07:49:10;1.58;;;1.48;;
7799;SDS011;3944;47.984;7.960;2022-08-02T07:51:37;1.48;;;1.38;;
7799;SDS011;3944;47.984;7.960;2022-08-02T07:54:06;1.30;;;1.20;;
7799;SDS011;3944;47.984;7.960;2022-08-02T07:56:32;2.20;;;1.40;;
7799;SDS011;3944;47.984;7.960;2022-08-02T07:58:59;3.80;;;1.30;;
7799;SDS011;3944;47.984;7.960;2022-08-02T08:01:26;1.10;;;1.10;;
7799;SDS011;3944;47.984;7.960;2022-08-02T08:03:53;1.42;;;1.38;;
7799;SDS011;3944;47.984;7.960;2022-08-02T08:06:20;1.08;;;1.05;;
7799;SDS011;3944;47.984;7.960;2022-08-02T08:08:47;1.20;;;1.15;;
7799;SDS011;3944;47.984;7.960;2022-08-02T08:11:15;4.43;;;1.00;;
7799;SDS011;3944;47.984;7.960;2022-08-02T08:13:42;1.55;;;1.45;;
7799;SDS011;3944;47.984;7.960;2022-08-02T08:16:09;1.63;;;1.52;;
7799;SDS011;3944;47.984;7.960;2022-08-02T08:18:36;1.13;;;1.05;;
7799;SDS011;3944;47.984;7.960;2022-08-02T08:21:03;1.55;;;1.45;;
7799;SDS011;3944;47.984;7.960;2022-08-02T08:23:30;1.20;;;1.20;;
7799;SDS011;3944;47.984;7.960;2022-08-02T08:25:57;1.58;;;1.48;;
7799;SDS011;3944;47.984;7.960;2022-08-02T08:28:26;1.20;;;1.20;;
7799;SDS011;3944;47.984;7.960;2022-08-02T08:30:53;1.50;;;1.40;;
7799;SDS011;3944;47.984;7.960;2022-08-02T08:33:19;1.17;;;1.08;;
7799;SDS011;3944;47.984;7.960;2022-08-02T08:35:46;1.10;;;1.10;;
7799;SDS011;3944;47.984;7.960;2022-08-02T08:38:13;1.25;;;1.15;;
7799;SDS011;3944;47.984;7.960;2022-08-02T08:40:40;1.00;;;1.00;;
7799;SDS011;3944;47.984;7.960;2022-08-02T08:43:10;1.52;;;1.33;;
7799;SDS011;3944;47.984;7.960;2022-08-02T08:45:39;1.52;;;1.42;;
7799;SDS011;3944;47.984;7.960;2022-08-02T08:48:07;1.27;;;1.25;;
7799;SDS011;3944;47.984;7.960;2022-08-02T08:50:38;1.67;;;1.58;;
7799;SDS011;3944;47.984;7.960;2022-08-02T08:53:11;1.40;;;1.30;;
7799;SDS011;3944;47.984;7.960;2022-08-02T08:55:40;1.52;;;1.42;;
7799;SDS011;3944;47.984;7.960;2022-08-02T08:58:07;1.30;;;1.20;;
7799;SDS011;3944;47.984;7.960;2022-08-02T09:00:34;1.45;;;1.35;;
7799;SDS011;3944;47.984;7.960;2022-08-02T09:03:03;1.27;;;1.05;;
7799;SDS011;3944;47.984;7.960;2022-08-02T09:05:33;3.65;;;1.13;;
7799;SDS011;3944;47.984;7.960;2022-08-02T09:08:00;1.40;;;1.30;;
7799;SDS011;3944;47.984;7.960;2022-08-02T09:10:30;1.35;;;1.25;;
7799;SDS011;3944;47.984;7.960;2022-08-02T09:13:09;1.48;;;1.30;;
7799;SDS011;3944;47.984;7.960;2022-08-02T09:15:38;1.35;;;1.27;;
7799;SDS011;3944;47.984;7.960;2022-08-02T09:18:08;0.93;;;0.93;;
7799;SDS011;3944;47.984;7.960;2022-08-02T09:20:50;1.40;;;1.30;;
7799;SDS011;3944;47.984;7.960;2022-08-02T09:23:18;1.38;;;1.30;;
7799;SDS011;3944;47.984;7.960;2022-08-02T09:25:53;1.40;;;1.30;;
7799;SDS011;3944;47.984;7.960;2022-08-02T09:28:24;1.52;;;0.95;;
7799;SDS011;3944;47.984;7.960;2022-08-02T09:30:54;1.17;;;1.17;;
7799;SDS011;3944;47.984;7.960;2022-08-02T09:33:26;1.00;;;1.00;;
7799;SDS011;3944;47.984;7.960;2022-08-02T09:36:00;1.02;;;1.02;;
7799;SDS011;3944;47.984;7.960;2022-08-02T09:38:28;0.95;;;0.95;;
7799;SDS011;3944;47.984;7.960;2022-08-02T09:40:56;1.90;;;1.45;;
7799;SDS011;3944;47.984;7.960;2022-08-02T09:43:34;1.02;;;1.02;;
7799;SDS011;3944;47.984;7.960;2022-08-02T09:46:08;1.55;;;1.40;;
7799;SDS011;3944;47.984;7.960;2022-08-02T09:48:46;0.90;;;0.90;;
7799;SDS011;3944;47.984;7.960;2022-08-02T09:51:17;1.17;;;1.10;;
7799;SDS011;3944;47.984;7.960;2022-08-02T09:53:46;1.98;;;1.48;;
7799;SDS011;3944;47.984;7.960;2022-08-02T09:56:14;0.90;;;0.90;;
7799;SDS011;3944;47.984;7.960;2022-08-02T09:58:42;0.95;;;0.95;;
7799;SDS011;3944;47.984;7.960;2022-08-02T10:01:09;1.45;;;1.35;;
7799;SDS011;3944;47.984;7.960;2022-08-02T10:03:37;1.30;;;1.20;;
7799;SDS011;3944;47.984;7.960;2022-08-02T10:06:20;3.45;;;1.10;;
7799;SDS011;3944;47.984;7.960;2022-08-02T10:08:47;0.95;;;0.95;;
7799;SDS011;3944;47.984;7.960;2022-08-02T10:11:17;1.30;;;1.30;;
7799;SDS011;3944;47.984;7.960;2022-08-02T10:13:44;1.40;;;1.30;;
7799;SDS011;3944;47.984;7.960;2022-08-02T10:16:11;1.30;;;1.15;;
7799;SDS011;3944;47.984;7.960;2022-08-02T10:18:40;1.10;;;1.10;;
7799;SDS011;3944;47.984;7.960;2022-08-02T10:21:10;1.20;;;1.10;;
7799;SDS011;3944;47.984;7.960;2022-08-02T10:23:41;0.95;;;0.95;;
7799;SDS011;3944;47.984;7.960;2022-08-02T10:26:12;1.20;;;1.10;;
7799;SDS011;3944;47.984;7.960;2022-08-02T10:28:41;1.15;;;1.10;;
7799;SDS011;3944;47.984;7.960;2022-08-02T10:31:10;1.00;;;1.00;;
7799;SDS011;3944;47.984;7.960;2022-08-02T10:33:39;1.25;;;1.00;;
7799;SDS011;3944;47.984;7.960;2022-08-02T10:36:08;1.10;;;1.10;;
7799;SDS011;3944;47.984;7.960;2022-08-02T10:38:45;0.98;;;0.98;;
7799;SDS011;3944;47.984;7.960;2022-08-02T10:44:26;0.95;;;0.95;;
7799;SDS011;3944;47.984;7.960;2022-08-02T10:49:48;1.70;;;0.95;;
7799;SDS011;3944;47.984;7.960;2022-08-02T10:52:18;0.90;;;0.90;;
7799;SDS011;3944;47.984;7.960;2022-08-02T10:57:34;1.17;;;1.10;;
7799;SDS011;3944;47.984;7.960;2022-08-02T11:00:08;1.23;;;1.13;;
7799;SDS011;3944;47.984;7.960;2022-08-02T11:02:37;1.00;;;1.00;;
7799;SDS011;3944;47.984;7.960;2022-08-02T11:05:09;2.35;;;1.40;;
7799;SDS011;3944;47.984;7.960;2022-08-02T11:07:43;0.90;;;0.88;;
7799;SDS011;3944;47.984;7.960;2022-08-02T11:10:34;1.35;;;1.23;;
7799;SDS011;3944;47.984;7.960;2022-08-02T11:13:07;1.33;;;1.23;;
7799;SDS011;3944;47.984;7.960;2022-08-02T11:15:56;1.75;;;1.20;;
7799;SDS011;3944;47.984;7.960;2022-08-02T11:21:27;1.23;;;1.00;;
7799;SDS011;3944;47.984;7.960;2022-08-02T11:23:56;1.27;;;1.23;;
7799;SDS011;3944;47.984;7.960;2022-08-02T11:26:51;1.45;;;1.35;;
7799;SDS011;3944;47.984;7.960;2022-08-02T11:29:18;0.88;;;0.88;;
7799;SDS011;3944;47.984;7.960;2022-08-02T11:31:45;1.20;;;1.00;;
7799;SDS011;3944;47.984;7.960;2022-08-02T11:34:13;0.88;;;0.88;;
7799;SDS011;3944;47.984;7.960;2022-08-02T11:36:45;1.20;;;1.20;;
7799;SDS011;3944;47.984;7.960;2022-08-02T11:39:15;0.70;;;0.70;;
7799;SDS011;3944;47.984;7.960;2022-08-02T11:41:47;1.00;;;1.00;;
7799;SDS011;3944;47.984;7.960;2022-08-02T11:44:15;1.20;;;1.10;;
7799;SDS011;3944;47.984;7.960;2022-08-02T11:46:43;1.13;;;1.00;;
7799;SDS011;3944;47.984;7.960;2022-08-02T11:49:10;1.35;;;1.25;;
7799;SDS011;3944;47.984;7.960;2022-08-02T11:51:52;1.00;;;1.00;;
7799;SDS011;3944;47.984;7.960;2022-08-02T11:54:27;2.83;;;1.50;;
7799;SDS011;3944;47.984;7.960;2022-08-02T11:57:12;0.90;;;0.90;;
7799;SDS011;3944;47.984;7.960;2022-08-02T11:59:41;1.08;;;0.70;;
7799;SDS011;3944;47.984;7.960;2022-08-02T12:02:10;0.80;;;0.80;;
7799;SDS011;3944;47.984;7.960;2022-08-02T12:04:38;1.15;;;1.05;;
7799;SDS011;3944;47.984;7.960;2022-08-02T12:07:05;1.73;;;1.00;;
7799;SDS011;3944;47.984;7.960;2022-08-02T12:09:34;1.00;;;1.00;;
7799;SDS011;3944;47.984;7.960;2022-08-02T12:12:02;0.75;;;0.75;;
7799;SDS011;3944;47.984;7.960;2022-08-02T12:14:31;1.00;;;1.00;;
7799;SDS011;3944;47.984;7.960;2022-08-02T12:16:58;1.40;;;1.30;;
7799;SDS011;3944;47.984;7.960;2022-08-02T12:19:42;1.88;;;1.27;;
7799;SDS011;3944;47.984;7.960;2022-08-02T12:22:11;1.10;;;1.10;;
7799;SDS011;3944;47.984;7.960;2022-08-02T12:24:42;1.80;;;0.82;;
7799;SDS011;3944;47.984;7.960;2022-08-02T12:29:57;1.08;;;1.00;;
7799;SDS011;3944;47.984;7.960;2022-08-02T12:32:25;1.42;;;1.33;;
7799;SDS011;3944;47.984;7.960;2022-08-02T12:34:59;1.08;;;1.00;;
7799;SDS011;3944;47.984;7.960;2022-08-02T12:37:28;0.82;;;0.82;;
7799;SDS011;3944;47.984;7.960;2022-08-02T12:39:56;1.00;;;1.00;;
7799;SDS011;3944;47.984;7.960;2022-08-02T12:42:23;1.20;;;1.20;;
7799;SDS011;3944;47.984;7.960;2022-08-02T12:44:51;1.00;;;1.00;;
7799;SDS011;3944;47.984;7.960;2022-08-02T12:47:19;1.15;;;1.00;;
7799;SDS011;3944;47.984;7.960;2022-08-02T12:49:46;0.98;;;0.98;;
7799;SDS011;3944;47.984;7.960;2022-08-02T12:52:33;0.70;;;0.70;;
7799;SDS011;3944;47.984;7.960;2022-08-02T12:55:01;1.25;;;1.15;;
7799;SDS011;3944;47.984;7.960;2022-08-02T12:57:49;0.98;;;0.98;;
7799;SDS011;3944;47.984;7.960;2022-08-02T13:00:21;0.98;;;0.98;;
7799;SDS011;3944;47.984;7.960;2022-08-02T13:02:50;0.93;;;0.93;;
7799;SDS011;3944;47.984;7.960;2022-08-02T13:05:17;1.00;;;0.88;;
7799;SDS011;3944;47.984;7.960;2022-08-02T13:07:43;0.80;;;0.80;;
7799;SDS011;3944;47.984;7.960;2022-08-02T13:10:12;1.25;;;1.15;;
7799;SDS011;3944;47.984;7.960;2022-08-02T13:12:39;0.75;;;0.75;;
7799;SDS011;3944;47.984;7.960;2022-08-02T13:15:06;0.57;;;0.57;;
7799;SDS011;3944;47.984;7.960;2022-08-02T13:17:34;0.70;;;0.70;;
7799;SDS011;3944;47.984;7.960;2022-08-02T13:20:01;1.00;;;1.00;;
7799;SDS011;3944;47.984;7.960;2022-08-02T13:22:28;0.85;;;0.85;;
7799;SDS011;3944;47.984;7.960;2022-08-02T13:24:55;0.68;;;0.68;;
7799;SDS011;3944;47.984;7.960;2022-08-02T13:27:23;0.90;;;0.82;;
7799;SDS011;3944;47.984;7.960;2022-08-02T13:29:52;1.15;;;1.10;;
7799;SDS011;3944;47.984;7.960;2022-08-02T13:32:19;0.60;;;0.60;;
7799;SDS011;3944;47.984;7.960;2022-08-02T13:34:47;0.70;;;0.70;;
7799;SDS011;3944;47.984;7.960;2022-08-02T13:37:14;0.47;;;0.47;;
7799;SDS011;3944;47.984;7.960;2022-08-02T13:39:41;0.63;;;0.63;;
7799;SDS011;3944;47.984;7.960;2022-08-02T13:42:08;0.95;;;0.80;;
7799;SDS011;3944;47.984;7.960;2022-08-02T13:44:37;0.65;;;0.65;;
7799;SDS011;3944;47.984;7.960;2022-08-02T13:47:04;0.70;;;0.70;;
7799;SDS011;3944;47.984;7.960;2022-08-02T13:49:32;0.60;;;0.60;;
7799;SDS011;3944;47.984;7.960;2022-08-02T13:51:59;0.50;;;0.50;;
7799;SDS011;3944;47.984;7.960;2022-08-02T13:54:26;0.50;;;0.50;;
7799;SDS011;3944;47.984;7.960;2022-08-02T13:56:52;0.75;;;0.75;;
7799;SDS011;3944;47.984;7.960;2022-08-02T13:59:19;0.85;;;0.80;;
7799;SDS011;3944;47.984;7.960;2022-08-02T14:01:47;0.73;;;0.73;;
7799;SDS011;3944;47.984;7.960;2022-08-02T14:04:14;0.70;;;0.70;;
7799;SDS011;3944;47.984;7.960;2022-08-02T14:06:41;2.13;;;0.80;;
7799;SDS011;3944;47.984;7.960;2022-08-02T14:09:08;0.60;;;0.60;;
7799;SDS011;3944;47.984;7.960;2022-08-02T14:11:35;0.50;;;0.50;;
7799;SDS011;3944;47.984;7.960;2022-08-02T14:14:02;0.52;;;0.52;;
7799;SDS011;3944;47.984;7.960;2022-08-02T14:16:28;0.60;;;0.60;;
7799;SDS011;3944;47.984;7.960;2022-08-02T14:18:57;0.50;;;0.50;;
7799;SDS011;3944;47.984;7.960;2022-08-02T14:21:23;0.50;;;0.50;;
7799;SDS011;3944;47.984;7.960;2022-08-02T14:23:50;0.55;;;0.55;;
7799;SDS011;3944;47.984;7.960;2022-08-02T14:26:17;0.30;;;0.30;;
7799;SDS011;3944;47.984;7.960;2022-08-02T14:28:44;0.43;;;0.43;;
7799;SDS011;3944;47.984;7.960;2022-08-02T14:31:11;0.68;;;0.65;;
7799;SDS011;3944;47.984;7.960;2022-08-02T14:33:38;0.50;;;0.50;;
7799;SDS011;3944;47.984;7.960;2022-08-02T14:36:06;0.40;;;0.40;;
7799;SDS011;3944;47.984;7.960;2022-08-02T14:38:33;1.48;;;1.15;;
7799;SDS011;3944;47.984;7.960;2022-08-02T14:41:01;0.50;;;0.50;;
7799;SDS011;3944;47.984;7.960;2022-08-02T14:43:28;0.70;;;0.70;;
7799;SDS011;3944;47.984;7.960;2022-08-02T14:46:12;0.30;;;0.30;;
7799;SDS011;3944;47.984;7.960;2022-08-02T14:48:39;0.30;;;0.30;;
7799;SDS011;3944;47.984;7.960;2022-08-02T14:51:08;0.43;;;0.43;;
7799;SDS011;3944;47.984;7.960;2022-08-02T14:53:37;0.43;;;0.43;;
7799;SDS011;3944;47.984;7.960;2022-08-02T14:56:04;0.68;;;0.63;;
7799;SDS011;3944;47.984;7.960;2022-08-02T14:58:31;0.50;;;0.50;;
7799;SDS011;3944;47.984;7.960;2022-08-02T15:00:57;0.40;;;0.40;;
7799;SDS011;3944;47.984;7.960;2022-08-02T15:03:24;0.30;;;0.30;;
7799;SDS011;3944;47.984;7.960;2022-08-02T15:05:51;0.30;;;0.30;;
7799;SDS011;3944;47.984;7.960;2022-08-02T15:08:19;0.60;;;0.60;;
7799;SDS011;3944;47.984;7.960;2022-08-02T15:10:46;0.40;;;0.40;;
7799;SDS011;3944;47.984;7.960;2022-08-02T15:13:13;0.55;;;0.55;;
7799;SDS011;3944;47.984;7.960;2022-08-02T15:15:40;0.50;;;0.50;;
7799;SDS011;3944;47.984;7.960;2022-08-02T15:18:07;0.30;;;0.30;;
7799;SDS011;3944;47.984;7.960;2022-08-02T15:20:33;0.30;;;0.30;;
7799;SDS011;3944;47.984;7.960;2022-08-02T15:23:00;0.30;;;0.30;;
7799;SDS011;3944;47.984;7.960;2022-08-02T15:25:28;0.45;;;0.45;;
7799;SDS011;3944;47.984;7.960;2022-08-02T15:27:55;0.43;;;0.43;;
7799;SDS011;3944;47.984;7.960;2022-08-02T15:30:22;0.47;;;0.47;;
7799;SDS011;3944;47.984;7.960;2022-08-02T15:32:49;0.70;;;0.70;;
7799;SDS011;3944;47.984;7.960;2022-08-02T15:35:16;0.60;;;0.60;;
7799;SDS011;3944;47.984;7.960;2022-08-02T15:37:43;0.40;;;0.40;;
7799;SDS011;3944;47.984;7.960;2022-08-02T15:40:10;0.60;;;0.50;;
7799;SDS011;3944;47.984;7.960;2022-08-02T15:42:38;0.40;;;0.40;;